createdAt,value
2018-07-10T00:02:22.412Z,17.30
2018-07-10T00:05:10.207Z,17.20
2018-07-10T00:07:53.412Z,17.10
2018-07-10T00:10:32.824Z,17.10
2018-07-10T00:13:02.727Z,17.10
2018-07-10T00:15:31.867Z,17.20
2018-07-10T00:18:01.909Z,17.20
2018-07-10T00:20:31.350Z,17.20
2018-07-10T00:23:01.462Z,17.10
2018-07-10T00:25:30.685Z,17.10
2018-07-10T00:28:00.384Z,17.10
2018-07-10T00:30:29.673Z,17.10
2018-07-10T00:32:59.369Z,17.10
2018-07-10T00:35:28.588Z,17.20
2018-07-10T00:38:08.983Z,17.20
2018-07-10T00:40:38.489Z,17.10
2018-07-10T00:43:10.536Z,17.00
2018-07-10T00:45:39.908Z,17.00
2018-07-10T00:50:38.081Z,16.90
2018-07-10T00:53:07.710Z,16.80
2018-07-10T00:55:36.662Z,16.80
2018-07-10T00:58:06.508Z,16.80
2018-07-10T01:00:36.435Z,16.80
2018-07-10T01:03:05.940Z,16.80
2018-07-10T01:05:35.593Z,16.80
2018-07-10T01:08:04.878Z,16.80
2018-07-10T01:10:34.708Z,16.80
2018-07-10T01:13:04.215Z,16.80
2018-07-10T01:15:33.641Z,16.80
2018-07-10T01:18:03.060Z,16.70
2018-07-10T01:20:32.225Z,16.70
2018-07-10T01:23:01.463Z,16.60
2018-07-10T01:25:30.592Z,16.60
2018-07-10T01:27:59.895Z,16.60
2018-07-10T01:30:29.477Z,16.60
2018-07-10T01:32:58.599Z,16.60
2018-07-10T01:35:27.994Z,16.60
2018-07-10T01:37:57.526Z,16.60
2018-07-10T01:40:27.072Z,16.60
2018-07-10T01:42:56.754Z,16.60
2018-07-10T01:45:26.063Z,16.70
2018-07-10T01:47:55.468Z,16.70
2018-07-10T01:50:25.064Z,16.60
2018-07-10T01:52:54.819Z,16.60
2018-07-10T01:55:24.958Z,16.60
2018-07-10T01:57:56.972Z,16.60
2018-07-10T02:00:39.248Z,16.70
2018-07-10T02:03:08.884Z,16.70
2018-07-10T02:05:38.868Z,16.70
2018-07-10T02:08:08.226Z,16.60
2018-07-10T02:10:37.455Z,16.60
2018-07-10T02:13:07.121Z,16.50
2018-07-10T02:15:37.124Z,16.50
2018-07-10T02:18:06.705Z,16.50
2018-07-10T02:20:50.253Z,16.50
2018-07-10T02:23:19.155Z,16.50
2018-07-10T02:25:49.981Z,16.50
2018-07-10T02:28:20.086Z,16.50
2018-07-10T02:30:50.625Z,16.40
2018-07-10T02:33:20.744Z,16.40
2018-07-10T02:35:50.328Z,16.40
2018-07-10T02:40:48.196Z,16.40
2018-07-10T02:43:17.445Z,16.50
2018-07-10T02:45:47.485Z,16.50
2018-07-10T02:48:17.242Z,16.50
2018-07-10T02:53:16.536Z,16.40
2018-07-10T02:55:46.823Z,16.40
2018-07-10T02:58:15.908Z,16.30
2018-07-10T03:00:45.013Z,16.20
2018-07-10T03:03:14.421Z,16.10
2018-07-10T03:05:44.593Z,16.10
2018-07-10T03:08:13.841Z,16.00
2018-07-10T03:10:43.187Z,15.90
2018-07-10T03:13:12.687Z,15.80
2018-07-10T03:15:42.165Z,15.80
2018-07-10T03:18:14.449Z,15.70
2018-07-10T03:20:44.474Z,15.70
2018-07-10T03:23:13.446Z,15.70
2018-07-10T03:25:43.022Z,15.70
2018-07-10T03:28:13.441Z,15.70
2018-07-10T03:30:43.193Z,15.70
2018-07-10T03:33:12.968Z,15.70
2018-07-10T03:35:42.868Z,15.70
2018-07-10T03:38:12.561Z,15.80
2018-07-10T03:40:42.836Z,15.80
2018-07-10T03:43:12.457Z,15.80
2018-07-10T03:45:42.072Z,15.80
2018-07-10T03:48:11.612Z,15.90
2018-07-10T03:50:40.774Z,15.90
2018-07-10T03:53:10.310Z,16.00
2018-07-10T03:55:39.681Z,16.00
2018-07-10T03:58:09.043Z,16.00
2018-07-10T04:03:08.014Z,16.10
2018-07-10T04:05:47.151Z,16.10
2018-07-10T04:08:16.621Z,16.10
2018-07-10T04:10:45.936Z,16.10
2018-07-10T04:13:19.733Z,16.10
2018-07-10T04:15:50.901Z,16.20
2018-07-10T04:18:25.747Z,16.20
2018-07-10T04:21:01.903Z,16.30
2018-07-10T04:23:37.731Z,16.30
2018-07-10T04:26:15.666Z,16.30
2018-07-10T04:28:50.496Z,16.30
2018-07-10T04:31:30.066Z,16.30
2018-07-10T04:33:59.905Z,16.30
2018-07-10T04:36:29.168Z,16.40
2018-07-10T04:38:59.219Z,16.40
2018-07-10T04:41:29.843Z,16.50
2018-07-10T04:44:05.579Z,16.50
2018-07-10T04:46:43.664Z,16.60
2018-07-10T04:49:33.246Z,16.60
2018-07-10T04:52:40.102Z,16.60
2018-07-10T04:55:11.724Z,16.60
2018-07-10T04:57:55.602Z,16.60
2018-07-10T05:00:25.692Z,16.60
2018-07-10T05:02:57.644Z,16.60
2018-07-10T05:05:29.319Z,16.70
2018-07-10T05:07:58.676Z,16.70
2018-07-10T05:10:28.668Z,16.70
2018-07-10T05:12:58.266Z,16.80
2018-07-10T05:15:27.610Z,16.90
2018-07-10T05:17:58.146Z,16.90
2018-07-10T05:20:27.281Z,17.00
2018-07-10T05:22:56.653Z,17.00
2018-07-10T05:25:26.036Z,17.10
2018-07-10T05:27:55.390Z,17.10
2018-07-10T05:30:25.009Z,17.00
2018-07-10T05:32:54.204Z,17.00
2018-07-10T05:35:24.426Z,17.00
2018-07-10T05:37:54.266Z,17.00
2018-07-10T05:40:27.406Z,17.00
2018-07-10T05:42:57.093Z,17.10
2018-07-10T05:45:33.003Z,17.20
2018-07-10T05:48:03.193Z,17.30
2018-07-10T05:50:34.893Z,17.30
2018-07-10T05:53:06.221Z,17.30
2018-07-10T05:55:36.713Z,17.30
2018-07-10T05:58:06.805Z,17.30
2018-07-10T06:00:36.722Z,17.40
2018-07-10T06:03:06.234Z,17.40
2018-07-10T06:05:35.284Z,17.40
2018-07-10T06:08:04.983Z,17.50
2018-07-10T06:10:34.879Z,17.50
2018-07-10T06:13:05.827Z,17.60
2018-07-10T06:15:35.499Z,17.60
2018-07-10T06:18:04.890Z,17.60
2018-07-10T06:20:34.858Z,17.60
2018-07-10T06:23:04.439Z,17.60
2018-07-10T06:25:36.080Z,17.60
2018-07-10T06:28:12.539Z,17.60
2018-07-10T06:30:42.534Z,17.50
2018-07-10T06:33:22.081Z,17.50
2018-07-10T06:36:29.592Z,17.40
2018-07-10T06:39:13.862Z,17.50
2018-07-10T06:42:01.395Z,17.50
2018-07-10T06:44:31.278Z,17.50
2018-07-10T06:47:01.373Z,17.40
2018-07-10T06:49:33.103Z,17.40
2018-07-10T06:52:10.054Z,17.40
2018-07-10T06:55:20.026Z,17.40
2018-07-10T06:57:53.524Z,17.40
2018-07-10T07:00:23.101Z,17.30
2018-07-10T07:02:52.687Z,17.30
2018-07-10T07:05:22.277Z,17.30
2018-07-10T07:07:51.729Z,17.30
2018-07-10T07:10:20.849Z,17.30
2018-07-10T07:12:50.317Z,17.30
2018-07-10T07:15:20.908Z,17.30
2018-07-10T07:17:53.344Z,17.30
2018-07-10T07:20:23.889Z,17.30
2018-07-10T07:22:54.188Z,17.30
2018-07-10T07:25:23.491Z,17.30
2018-07-10T07:27:53.193Z,17.40
2018-07-10T07:30:22.515Z,17.40
2018-07-10T07:32:52.337Z,17.40
2018-07-10T07:35:21.979Z,17.50
2018-07-10T07:37:51.737Z,17.50
2018-07-10T07:40:21.387Z,17.60
2018-07-10T07:42:50.959Z,17.70
2018-07-10T07:45:20.247Z,17.70
2018-07-10T07:47:49.738Z,17.80
2018-07-10T07:50:20.322Z,17.80
2018-07-10T07:52:49.922Z,17.80
2018-07-10T07:55:19.268Z,17.80
2018-07-10T07:57:49.019Z,17.90
2018-07-10T08:00:18.726Z,17.90
2018-07-10T08:02:48.902Z,18.00
2018-07-10T08:05:18.627Z,18.20
2018-07-10T08:07:48.215Z,18.20
2018-07-10T08:10:17.779Z,18.30
2018-07-10T08:12:47.257Z,18.30
2018-07-10T08:15:16.593Z,18.30
2018-07-10T08:17:46.584Z,18.30
2018-07-10T08:20:16.634Z,18.20
2018-07-10T08:22:45.910Z,18.10
2018-07-10T08:25:16.051Z,18.20
2018-07-10T08:27:45.765Z,18.20
2018-07-10T08:30:15.637Z,18.20
2018-07-10T08:32:45.034Z,18.40
2018-07-10T08:35:14.664Z,18.40
2018-07-10T08:37:44.718Z,18.40
2018-07-10T08:40:14.219Z,18.50
2018-07-10T08:42:43.893Z,18.50
2018-07-10T08:45:14.453Z,18.50
2018-07-10T08:47:44.529Z,18.60
2018-07-10T08:50:14.984Z,18.90
2018-07-10T08:52:44.592Z,19.10
2018-07-10T08:55:13.759Z,19.20
2018-07-10T08:57:43.328Z,19.30
2018-07-10T09:00:13.289Z,19.30
2018-07-10T09:02:42.968Z,19.30
2018-07-10T09:05:12.481Z,19.40
2018-07-10T09:07:41.969Z,19.40
2018-07-10T09:10:12.045Z,19.30
2018-07-10T09:12:41.403Z,19.20
2018-07-10T09:15:10.631Z,19.20
2018-07-10T09:17:40.452Z,19.20
2018-07-10T09:20:09.749Z,19.10
2018-07-10T09:22:39.028Z,19.00
2018-07-10T09:25:08.374Z,18.90
2018-07-10T09:27:37.627Z,18.90
2018-07-10T09:30:06.915Z,18.90
2018-07-10T09:32:44.117Z,18.80
2018-07-10T09:35:14.065Z,18.80
2018-07-10T09:37:45.756Z,19.20
2018-07-10T09:40:16.935Z,19.30
2018-07-10T09:42:56.679Z,19.50
2018-07-10T09:45:27.127Z,19.60
2018-07-10T09:50:25.847Z,19.40
2018-07-10T09:52:56.033Z,19.20
2018-07-10T09:55:25.229Z,19.10
2018-07-10T09:57:58.252Z,19.20
2018-07-10T10:00:33.248Z,19.30
2018-07-10T10:03:03.716Z,19.20
2018-07-10T10:05:40.746Z,19.10
2018-07-10T10:08:10.443Z,18.90
2018-07-10T10:10:39.985Z,18.90
2018-07-10T10:13:09.561Z,18.90
2018-07-10T10:15:39.361Z,18.90
2018-07-10T10:18:10.405Z,19.20
2018-07-10T10:20:42.188Z,19.40
2018-07-10T10:23:14.568Z,19.50
2018-07-10T10:25:48.683Z,19.50
2018-07-10T10:28:19.066Z,19.40
2018-07-10T10:30:48.771Z,19.20
2018-07-10T10:33:18.111Z,19.10
2018-07-10T10:35:48.754Z,19.10
2018-07-10T10:38:19.094Z,19.10
2018-07-10T10:40:50.341Z,19.00
2018-07-10T10:43:20.022Z,19.00
2018-07-10T10:45:49.364Z,19.10
2018-07-10T10:48:21.794Z,19.20
2018-07-10T10:50:52.748Z,19.60
2018-07-10T10:53:22.854Z,19.90
2018-07-10T10:55:52.172Z,19.90
2018-07-10T10:58:22.518Z,20.00
2018-07-10T11:00:51.891Z,20.10
2018-07-10T11:03:21.626Z,20.30
2018-07-10T11:05:51.196Z,20.40
2018-07-10T11:08:22.804Z,20.50
2018-07-10T11:10:52.706Z,20.60
2018-07-10T11:13:22.675Z,20.80
2018-07-10T11:15:52.569Z,21.00
2018-07-10T11:18:34.753Z,21.40
2018-07-10T11:28:42.737Z,22.10
2018-07-10T11:31:12.137Z,22.00
2018-07-10T11:33:41.590Z,22.10
2018-07-10T11:36:11.389Z,22.20
2018-07-10T11:38:41.537Z,22.50
2018-07-10T11:41:11.815Z,22.60
2018-07-10T11:43:42.229Z,22.70
2018-07-10T11:46:11.877Z,22.50
2018-07-10T11:48:41.514Z,22.40
2018-07-10T11:51:11.186Z,22.40
2018-07-10T11:53:41.108Z,22.50
2018-07-10T11:56:10.398Z,22.70
2018-07-10T11:58:40.101Z,23.20
2018-07-10T12:01:09.459Z,23.40
2018-07-10T12:03:41.186Z,23.50
2018-07-10T12:06:11.395Z,23.50
2018-07-10T12:08:41.157Z,23.30
2018-07-10T12:11:17.103Z,23.10
2018-07-10T12:13:47.112Z,22.90
2018-07-10T12:16:17.487Z,23.20
2018-07-10T12:18:46.989Z,23.70
2018-07-10T12:21:17.121Z,24.00
2018-07-10T12:23:46.880Z,24.20
2018-07-10T12:26:16.412Z,24.30
2018-07-10T12:28:45.740Z,24.20
2018-07-10T12:31:16.062Z,24.10
2018-07-10T12:33:45.522Z,23.90
2018-07-10T12:36:15.080Z,23.90
2018-07-10T12:38:46.656Z,23.80
2018-07-10T12:41:16.521Z,24.00
2018-07-10T12:43:46.203Z,24.20
2018-07-10T12:46:15.858Z,24.30
2018-07-10T12:48:45.265Z,24.40
2018-07-10T12:51:15.100Z,24.50
2018-07-10T12:53:44.624Z,24.30
2018-07-10T12:56:14.217Z,24.30
2018-07-10T12:58:44.438Z,24.30
2018-07-10T13:01:13.628Z,24.50
2018-07-10T13:03:44.169Z,24.40
2018-07-10T13:06:13.924Z,24.40
2018-07-10T13:08:44.236Z,24.30
2018-07-10T13:11:14.042Z,24.30
2018-07-10T13:13:43.750Z,24.30
2018-07-10T13:16:13.284Z,24.30
2018-07-10T13:18:43.047Z,24.40
2018-07-10T13:21:12.933Z,24.50
2018-07-10T13:23:42.680Z,24.60
2018-07-10T13:26:12.173Z,25.00
2018-07-10T13:28:42.112Z,25.30
2018-07-10T13:31:12.077Z,25.50
2018-07-10T13:33:41.984Z,25.60
2018-07-10T13:36:11.512Z,25.90
2018-07-10T13:38:42.099Z,26.00
2018-07-10T13:41:11.904Z,26.30
2018-07-10T13:43:41.504Z,26.50
2018-07-10T13:46:11.264Z,26.30
2018-07-10T13:48:40.803Z,26.30
2018-07-10T13:51:10.444Z,26.40
2018-07-10T13:53:39.503Z,26.20
2018-07-10T13:56:09.365Z,25.70
2018-07-10T13:58:39.492Z,25.00
2018-07-10T14:01:10.782Z,24.50
2018-07-10T14:03:40.042Z,24.30
2018-07-10T14:06:09.505Z,24.90
2018-07-10T14:08:38.449Z,26.60
2018-07-10T14:11:07.625Z,26.90
2018-07-10T14:13:37.238Z,27.60
2018-07-10T14:18:35.957Z,32.70
2018-07-10T14:21:08.459Z,35.30
2018-07-10T14:23:37.912Z,37.20
2018-07-10T14:26:07.939Z,38.40
2018-07-10T14:28:37.330Z,40.10
2018-07-10T14:31:06.727Z,42.00
2018-07-10T14:33:34.996Z,42.30
2018-07-10T14:36:04.252Z,43.60
2018-07-10T14:38:32.950Z,44.80
2018-07-10T14:41:05.720Z,45.70
2018-07-10T14:43:38.577Z,46.50
2018-07-10T14:46:12.489Z,44.10
2018-07-10T14:48:45.724Z,40.40
2018-07-10T14:51:17.140Z,38.40
2018-07-10T14:53:46.695Z,37.00
2018-07-10T14:56:16.086Z,35.00
2018-07-10T14:58:45.531Z,33.30
2018-07-10T15:01:15.194Z,32.30
2018-07-10T15:03:44.291Z,32.20
2018-07-10T15:06:13.584Z,35.10
2018-07-10T15:08:43.003Z,38.10
2018-07-10T15:11:12.788Z,40.40
2018-07-10T15:13:53.195Z,42.60
2018-07-10T15:16:22.478Z,44.50
2018-07-10T15:18:52.782Z,46.40
2018-07-10T15:23:55.887Z,47.60
2018-07-10T15:26:25.810Z,45.80
2018-07-10T15:31:25.461Z,40.70
2018-07-10T15:33:55.109Z,38.40
2018-07-10T15:36:24.902Z,39.10
2018-07-10T15:38:54.333Z,41.20
2018-07-10T15:41:24.124Z,43.10
2018-07-10T15:43:53.557Z,44.30
2018-07-10T15:46:22.698Z,45.50
2018-07-10T15:48:52.260Z,46.20
2018-07-10T15:51:22.348Z,45.00
2018-07-10T15:53:52.496Z,41.90
2018-07-10T15:56:21.555Z,39.10
2018-07-10T15:58:51.612Z,37.20
2018-07-10T16:01:20.786Z,35.60
2018-07-10T16:03:50.423Z,34.20
2018-07-10T16:06:20.229Z,33.50
2018-07-10T16:08:49.900Z,32.80
2018-07-10T16:11:19.385Z,32.40
2018-07-10T16:13:49.065Z,32.00
2018-07-10T16:16:21.093Z,31.40
2018-07-10T16:18:55.955Z,30.90
2018-07-10T16:21:32.303Z,30.30
2018-07-10T16:24:04.215Z,29.80
2018-07-10T16:26:34.145Z,29.40
2018-07-10T16:29:08.144Z,29.00
2018-07-10T16:31:40.977Z,28.70
2018-07-10T16:34:10.912Z,28.50
2018-07-10T16:36:41.051Z,28.20
2018-07-10T16:41:45.271Z,27.80
2018-07-10T16:44:14.781Z,27.40
2018-07-10T16:49:20.334Z,27.00
2018-07-10T16:52:02.654Z,26.80
2018-07-10T16:54:33.559Z,26.60
2018-07-10T16:57:03.198Z,26.50
2018-07-10T16:59:33.941Z,26.30
2018-07-10T17:02:04.082Z,26.10
2018-07-10T17:04:33.654Z,26.10
2018-07-10T17:07:04.343Z,26.20
2018-07-10T17:09:33.972Z,26.30
2018-07-10T17:12:03.994Z,26.40
2018-07-10T17:14:35.182Z,26.30
2018-07-10T17:17:09.472Z,26.00
2018-07-10T17:19:39.342Z,25.70
2018-07-10T17:22:09.481Z,25.40
2018-07-10T17:24:39.460Z,25.40
2018-07-10T17:29:38.385Z,25.50
2018-07-10T17:32:08.626Z,25.70
2018-07-10T17:34:38.098Z,26.00
2018-07-10T17:37:07.691Z,26.40
2018-07-10T17:39:37.441Z,27.00
2018-07-10T17:42:07.039Z,26.80
2018-07-10T17:44:36.465Z,26.50
2018-07-10T17:47:06.143Z,26.20
2018-07-10T17:49:35.681Z,26.20
2018-07-10T17:52:05.037Z,26.30
2018-07-10T17:54:35.181Z,26.50
2018-07-10T17:57:05.778Z,27.10
2018-07-10T17:59:35.770Z,27.20
2018-07-10T18:02:05.182Z,27.40
2018-07-10T18:04:34.504Z,28.80
2018-07-10T18:07:03.904Z,29.30
2018-07-10T18:09:33.507Z,29.60
2018-07-10T18:12:03.163Z,30.00
2018-07-10T18:14:32.332Z,30.90
2018-07-10T18:17:01.679Z,31.80
2018-07-10T18:19:31.452Z,32.10
2018-07-10T18:22:00.724Z,31.00
2018-07-10T18:24:31.033Z,29.60
2018-07-10T18:27:00.321Z,28.50
2018-07-10T18:29:30.158Z,27.60
2018-07-10T18:31:59.428Z,26.80
2018-07-10T18:34:29.255Z,26.20
2018-07-10T18:36:58.473Z,25.80
2018-07-10T18:39:28.084Z,25.40
2018-07-10T18:41:58.363Z,25.10
2018-07-10T18:44:28.061Z,24.80
2018-07-10T18:46:57.702Z,24.60
2018-07-10T18:49:27.886Z,24.40
2018-07-10T18:54:39.231Z,24.20
2018-07-10T18:57:17.448Z,24.10
2018-07-10T18:59:56.889Z,24.00
2018-07-10T19:02:34.947Z,23.90
2018-07-10T19:05:08.237Z,23.70
2018-07-10T19:07:39.388Z,23.50
2018-07-10T19:12:39.370Z,23.20
2018-07-10T19:15:09.065Z,23.10
2018-07-10T19:17:38.817Z,23.10
2018-07-10T19:20:11.237Z,23.00
2018-07-10T19:23:01.518Z,22.90
2018-07-10T19:25:31.053Z,22.80
2018-07-10T19:28:01.849Z,22.70
2018-07-10T19:30:37.014Z,22.60
2018-07-10T19:33:06.846Z,22.50
2018-07-10T19:35:36.302Z,22.40
2018-07-10T19:38:05.998Z,22.30
2018-07-10T19:40:35.197Z,22.20
2018-07-10T19:43:04.466Z,22.10
2018-07-10T19:45:33.413Z,22.00
2018-07-10T19:48:02.812Z,22.00
2018-07-10T19:50:38.807Z,21.90
2018-07-10T19:53:07.902Z,21.80
2018-07-10T19:55:39.770Z,21.70
2018-07-10T19:58:46.365Z,21.60
2018-07-10T20:01:54.588Z,21.60
2018-07-10T20:04:34.741Z,21.50
2018-07-10T20:07:11.525Z,21.50
2018-07-10T20:09:49.761Z,21.50
2018-07-10T20:12:23.068Z,21.50
2018-07-10T20:16:00.744Z,21.50
2018-07-10T20:18:41.896Z,21.50
2018-07-10T20:24:24.585Z,21.40
2018-07-10T20:27:02.703Z,21.40
2018-07-10T20:31:44.434Z,21.30
2018-07-10T20:34:25.131Z,21.30
2018-07-10T20:36:55.756Z,21.30
2018-07-10T20:39:34.497Z,21.30
2018-07-10T20:42:04.684Z,21.20
2018-07-10T20:44:40.469Z,21.20
2018-07-10T20:47:10.623Z,21.10
2018-07-10T20:49:52.682Z,21.00
2018-07-10T20:52:30.452Z,20.90
2018-07-10T20:55:05.546Z,20.90
2018-07-10T21:00:09.530Z,20.70
2018-07-10T21:03:04.106Z,20.70
2018-07-10T21:05:38.892Z,20.60
2018-07-10T21:08:16.059Z,20.50
2018-07-10T21:11:20.927Z,20.50
2018-07-10T21:13:57.258Z,20.40
2018-07-10T21:16:32.265Z,20.30
2018-07-10T21:19:25.232Z,20.20
2018-07-10T21:22:02.819Z,20.20
2018-07-10T21:25:40.688Z,20.10
2018-07-10T21:28:24.841Z,20.00
2018-07-10T21:33:44.448Z,19.80
2018-07-10T21:36:18.325Z,19.80
2018-07-10T21:39:07.293Z,19.80
2018-07-10T21:42:49.304Z,19.80
2018-07-10T21:45:35.554Z,19.80
2018-07-10T21:48:12.024Z,19.70
2018-07-10T21:50:49.860Z,19.60
2018-07-10T21:53:20.381Z,19.60
2018-07-10T21:55:50.553Z,19.50
2018-07-10T21:58:24.733Z,19.50
2018-07-10T22:02:07.367Z,19.40
2018-07-10T22:04:38.077Z,19.50
2018-07-10T22:07:11.376Z,19.40
2018-07-10T22:09:41.736Z,19.30
2018-07-10T22:12:14.984Z,19.20
2018-07-10T22:14:44.541Z,19.20
2018-07-10T22:17:18.692Z,19.20
2018-07-10T22:19:49.951Z,19.20
2018-07-10T22:22:21.659Z,19.20
2018-07-10T22:24:52.982Z,19.20
2018-07-10T22:27:23.135Z,19.20
2018-07-10T22:30:01.385Z,19.10
2018-07-10T22:32:36.300Z,19.10
2018-07-10T22:35:05.714Z,19.10
2018-07-10T22:37:35.117Z,19.10
2018-07-10T22:40:06.207Z,19.00
2018-07-10T22:42:36.743Z,19.00
2018-07-10T22:47:38.561Z,18.90
2018-07-10T22:50:17.554Z,18.80
2018-07-10T22:52:53.757Z,18.80
2018-07-10T23:00:31.857Z,18.60
2018-07-10T23:03:06.412Z,18.60
2018-07-10T23:05:36.454Z,18.50
2018-07-10T23:08:06.204Z,18.40
2018-07-10T23:10:36.028Z,18.40
2018-07-10T23:13:05.987Z,18.40
2018-07-10T23:15:36.354Z,18.30
2018-07-10T23:18:05.995Z,18.30
2018-07-10T23:20:35.971Z,18.30
2018-07-10T23:23:07.152Z,18.30
2018-07-10T23:25:37.057Z,18.20
2018-07-10T23:30:40.506Z,18.20
2018-07-10T23:33:13.422Z,18.10
2018-07-10T23:35:44.070Z,18.10
2018-07-10T23:38:24.991Z,18.00
2018-07-10T23:41:12.715Z,18.00
2018-07-10T23:43:44.727Z,18.00
2018-07-10T23:46:33.764Z,17.90
2018-07-10T23:49:21.201Z,17.90
2018-07-10T23:53:01.505Z,17.80
2018-07-10T23:55:31.527Z,17.70
2018-07-10T23:58:01.354Z,17.60
